createdAt,value
2022-08-09T00:00:04.574Z,20.90
2022-08-09T00:02:33.953Z,21.00
2022-08-09T00:06:15.962Z,21.00
2022-08-09T00:07:49.435Z,21.00
2022-08-09T00:10:21.577Z,21.00
2022-08-09T00:12:53.069Z,21.00
2022-08-09T00:15:26.677Z,21.00
2022-08-09T00:18:07.477Z,21.00
2022-08-09T00:20:42.611Z,21.00
2022-08-09T00:23:56.446Z,21.00
2022-08-09T00:26:05.466Z,21.00
2022-08-09T00:28:34.518Z,21.00
2022-08-09T00:31:02.421Z,21.00
2022-08-09T00:33:51.084Z,21.00
2022-08-09T00:36:19.383Z,20.90
2022-08-09T00:38:46.894Z,20.90
2022-08-09T00:44:13.075Z,20.90
2022-08-09T00:44:15.996Z,20.90
2022-08-09T00:46:57.690Z,20.90
2022-08-09T00:49:31.081Z,20.80
2022-08-09T00:51:58.119Z,20.80
2022-08-09T00:54:36.335Z,20.90
2022-08-09T00:57:10.471Z,20.80
2022-08-09T00:59:40.983Z,20.80
2022-08-09T01:02:15.434Z,20.90
2022-08-09T01:04:52.923Z,20.90
2022-08-09T01:07:37.662Z,20.90
2022-08-09T01:10:15.698Z,20.90
2022-08-09T01:12:50.828Z,20.90
2022-08-09T01:15:24.005Z,20.90
2022-08-09T01:17:57.698Z,20.90
2022-08-09T01:20:34.622Z,20.90
2022-08-09T01:24:03.597Z,20.90
2022-08-09T01:26:15.520Z,20.90
2022-08-09T01:28:47.179Z,20.80
2022-08-09T01:32:30.623Z,20.70
2022-08-09T01:34:10.470Z,20.70
2022-08-09T01:36:39.903Z,20.70
2022-08-09T01:39:07.274Z,20.70
2022-08-09T01:41:35.963Z,20.70
2022-08-09T01:44:05.548Z,20.70
2022-08-09T01:46:37.198Z,20.70
2022-08-09T01:49:09.974Z,20.70
2022-08-09T01:51:42.753Z,20.70
2022-08-09T01:54:12.587Z,20.70
2022-08-09T01:56:42.103Z,20.60
2022-08-09T01:59:19.395Z,20.50
2022-08-09T02:01:59.442Z,20.50
2022-08-09T02:04:29.823Z,20.50
2022-08-09T02:07:17.779Z,20.50
2022-08-09T02:10:04.155Z,20.50
2022-08-09T02:12:33.337Z,20.50
2022-08-09T02:15:03.188Z,20.50
2022-08-09T02:18:01.673Z,20.50
2022-08-09T02:20:25.223Z,20.50
2022-08-09T02:23:06.028Z,20.50
2022-08-09T02:25:42.649Z,20.50
2022-08-09T02:28:20.377Z,20.50
2022-08-09T02:30:51.741Z,20.50
2022-08-09T02:33:23.310Z,20.50
2022-08-09T02:36:08.227Z,19.90
2022-08-09T02:38:47.761Z,20.50
2022-08-09T02:41:19.181Z,20.50
2022-08-09T02:43:54.763Z,20.40
2022-08-09T02:46:25.439Z,20.40
2022-08-09T02:48:56.401Z,20.40
2022-08-09T02:51:24.278Z,20.30
2022-08-09T02:54:00.786Z,20.30
2022-08-09T02:56:30.342Z,20.20
2022-08-09T02:58:58.572Z,20.30
2022-08-09T03:01:29.621Z,20.30
2022-08-09T03:04:19.242Z,20.30
2022-08-09T03:06:48.815Z,20.20
2022-08-09T03:09:19.561Z,20.20
2022-08-09T03:12:09.758Z,20.30
2022-08-09T03:14:36.720Z,20.20
2022-08-09T03:17:05.702Z,20.30
2022-08-09T03:19:59.481Z,20.30
2022-08-09T03:22:25.414Z,20.30
2022-08-09T03:25:03.339Z,20.20
2022-08-09T03:27:37.239Z,20.20
2022-08-09T03:30:13.191Z,20.10
2022-08-09T03:32:45.610Z,20.10
2022-08-09T03:35:14.984Z,20.10
2022-08-09T03:37:55.709Z,20.10
2022-08-09T03:40:25.480Z,20.10
2022-08-09T03:42:57.908Z,20.10
2022-08-09T03:46:05.338Z,20.10
2022-08-09T03:48:19.047Z,20.20
2022-08-09T03:50:59.085Z,20.20
2022-08-09T03:53:32.219Z,20.20
2022-08-09T03:56:04.920Z,20.20
2022-08-09T03:58:32.450Z,20.20
2022-08-09T04:00:59.934Z,20.20
2022-08-09T04:03:45.886Z,20.20
2022-08-09T04:06:16.665Z,20.10
2022-08-09T04:08:46.672Z,20.10
2022-08-09T04:11:13.666Z,20.20
2022-08-09T04:14:37.484Z,20.10
2022-08-09T04:16:27.548Z,20.10
2022-08-09T04:18:54.926Z,20.10
2022-08-09T04:21:22.172Z,20.10
2022-08-09T04:23:54.110Z,20.10
2022-08-09T04:26:24.484Z,20.10
2022-08-09T04:28:54.062Z,20.10
2022-08-09T04:31:26.348Z,20.20
2022-08-09T04:34:04.950Z,20.20
2022-08-09T04:36:33.755Z,20.20
2022-08-09T04:39:04.116Z,20.20
2022-08-09T04:41:32.882Z,20.20
2022-08-09T04:44:07.137Z,20.20
2022-08-09T04:46:56.745Z,20.30
2022-08-09T04:49:47.707Z,20.30
2022-08-09T04:52:12.380Z,20.30
2022-08-09T04:54:50.800Z,20.30
2022-08-09T04:57:21.526Z,20.30
2022-08-09T04:59:51.810Z,20.30
2022-08-09T05:02:18.951Z,20.30
2022-08-09T05:04:47.702Z,20.40
2022-08-09T05:07:22.268Z,20.40
2022-08-09T05:09:50.226Z,19.80
2022-08-09T05:12:17.278Z,20.40
2022-08-09T05:14:43.987Z,20.50
2022-08-09T05:17:15.374Z,20.50
2022-08-09T05:19:59.084Z,20.50
2022-08-09T05:22:33.245Z,20.60
2022-08-09T05:25:02.866Z,20.50
2022-08-09T05:27:30.276Z,20.60
2022-08-09T05:29:57.898Z,20.60
2022-08-09T05:32:26.004Z,20.60
2022-08-09T05:34:56.996Z,20.60
2022-08-09T05:37:25.493Z,20.60
2022-08-09T05:39:52.769Z,20.60
2022-08-09T05:42:21.550Z,20.70
2022-08-09T05:44:58.037Z,20.80
2022-08-09T05:47:30.323Z,20.90
2022-08-09T05:50:25.926Z,20.90
2022-08-09T05:52:53.595Z,20.90
2022-08-09T05:55:23.918Z,20.90
2022-08-09T05:57:56.792Z,21.00
2022-08-09T06:00:25.677Z,21.10
2022-08-09T06:02:57.020Z,21.30
2022-08-09T06:05:31.006Z,21.30
2022-08-09T06:08:12.122Z,21.40
2022-08-09T06:10:38.888Z,21.40
2022-08-09T06:13:12.239Z,21.40
2022-08-09T06:15:46.887Z,21.40
2022-08-09T06:18:15.811Z,21.50
2022-08-09T06:20:54.408Z,21.50
2022-08-09T06:23:57.301Z,21.50
2022-08-09T06:26:15.137Z,21.60
2022-08-09T06:28:48.951Z,21.80
2022-08-09T06:31:15.760Z,21.80
2022-08-09T06:33:48.931Z,21.80
2022-08-09T06:36:20.050Z,21.90
2022-08-09T06:38:54.952Z,21.90
2022-08-09T06:41:24.161Z,22.00
2022-08-09T06:44:13.638Z,22.10
2022-08-09T06:46:47.412Z,22.50
2022-08-09T06:49:29.101Z,22.70
2022-08-09T06:52:04.752Z,22.80
2022-08-09T06:54:35.303Z,22.70
2022-08-09T06:57:02.062Z,22.70
2022-08-09T07:00:55.352Z,22.70
2022-08-09T07:02:16.761Z,22.60
2022-08-09T07:04:44.734Z,22.80
2022-08-09T07:07:12.136Z,22.90
2022-08-09T07:10:11.525Z,22.70
2022-08-09T07:12:46.339Z,22.60
2022-08-09T07:16:36.709Z,22.50
2022-08-09T07:18:11.973Z,22.40
2022-08-09T07:20:43.369Z,22.40
2022-08-09T07:23:18.712Z,22.40
2022-08-09T07:25:52.620Z,22.50
2022-08-09T07:28:29.738Z,22.70
2022-08-09T07:30:56.561Z,22.80
2022-08-09T07:33:25.764Z,23.20
2022-08-09T07:35:58.013Z,23.40
2022-08-09T07:38:25.668Z,23.40
2022-08-09T07:41:12.079Z,23.50
2022-08-09T07:43:49.606Z,23.50
2022-08-09T07:46:22.489Z,23.40
2022-08-09T07:48:59.380Z,23.50
2022-08-09T07:52:04.386Z,23.50
2022-08-09T07:54:15.131Z,23.60
2022-08-09T07:56:49.349Z,23.70
2022-08-09T07:59:34.695Z,23.80
2022-08-09T08:02:05.384Z,23.90
2022-08-09T08:04:33.044Z,24.00
2022-08-09T08:07:14.866Z,24.10
2022-08-09T08:09:55.115Z,24.20
2022-08-09T08:12:37.222Z,24.50
2022-08-09T08:15:11.800Z,24.60
2022-08-09T08:17:52.940Z,24.60
2022-08-09T08:20:29.078Z,24.50
2022-08-09T08:23:01.345Z,24.60
2022-08-09T08:25:44.781Z,24.80
2022-08-09T08:28:17.989Z,25.00
2022-08-09T08:30:47.572Z,25.20
2022-08-09T08:33:24.104Z,25.10
2022-08-09T08:35:58.213Z,25.10
2022-08-09T08:38:27.994Z,25.20
2022-08-09T08:40:56.102Z,25.00
2022-08-09T08:43:26.507Z,25.00
2022-08-09T08:46:03.695Z,25.20
2022-08-09T08:48:37.612Z,25.10
2022-08-09T08:51:06.535Z,25.00
2022-08-09T08:53:37.219Z,25.00
2022-08-09T08:56:06.653Z,25.20
2022-08-09T08:58:36.236Z,25.30
2022-08-09T09:01:08.832Z,25.20
2022-08-09T09:03:58.339Z,25.30
2022-08-09T09:06:38.954Z,25.40
2022-08-09T09:09:57.844Z,25.60
2022-08-09T09:11:55.770Z,25.60
2022-08-09T09:14:25.047Z,25.80
2022-08-09T09:16:54.540Z,25.70
2022-08-09T09:19:36.990Z,25.40
2022-08-09T09:22:11.741Z,24.50
2022-08-09T09:24:43.470Z,25.20
2022-08-09T09:28:04.010Z,25.30
2022-08-09T09:30:22.727Z,25.20
2022-08-09T09:33:15.524Z,25.30
2022-08-09T09:36:01.361Z,25.40
2022-08-09T09:38:46.249Z,25.60
2022-08-09T09:41:32.582Z,25.80
2022-08-09T09:44:12.821Z,25.80
2022-08-09T09:46:46.124Z,25.80
2022-08-09T09:49:32.289Z,26.10
2022-08-09T09:52:16.368Z,26.40
2022-08-09T09:55:27.576Z,26.40
2022-08-09T09:58:15.832Z,26.30
2022-08-09T10:00:54.076Z,26.10
2022-08-09T10:03:43.904Z,26.10
2022-08-09T10:06:12.595Z,26.20
2022-08-09T10:08:43.253Z,26.00
2022-08-09T10:12:00.307Z,26.20
2022-08-09T10:14:30.514Z,25.50
2022-08-09T10:17:38.916Z,26.00
2022-08-09T10:19:45.840Z,26.00
2022-08-09T10:22:12.772Z,26.00
2022-08-09T10:24:40.351Z,25.90
2022-08-09T10:27:10.511Z,26.00
2022-08-09T10:30:48.062Z,26.30
2022-08-09T10:32:42.777Z,26.50
2022-08-09T10:35:37.980Z,26.60
2022-08-09T10:38:54.443Z,26.70
2022-08-09T10:41:20.769Z,26.50
2022-08-09T10:43:58.716Z,26.60
2022-08-09T10:46:54.660Z,26.60
2022-08-09T10:49:49.909Z,26.70
2022-08-09T10:52:42.642Z,26.70
2022-08-09T10:55:23.111Z,26.70
2022-08-09T10:57:51.897Z,26.60
2022-08-09T11:00:56.878Z,26.60
2022-08-09T11:03:49.839Z,27.00
2022-08-09T11:06:22.868Z,26.80
2022-08-09T11:08:53.930Z,26.90
2022-08-09T11:11:22.309Z,27.00
2022-08-09T11:14:28.269Z,26.90
2022-08-09T11:16:56.684Z,26.70
2022-08-09T11:20:07.969Z,26.60
2022-08-09T11:23:02.933Z,26.50
2022-08-09T11:25:47.624Z,26.10
2022-08-09T11:28:38.635Z,26.10
2022-08-09T11:31:48.803Z,26.50
2022-08-09T11:34:24.808Z,26.90
2022-08-09T11:36:52.590Z,27.60
2022-08-09T11:39:19.432Z,28.10
2022-08-09T11:41:46.789Z,28.10
2022-08-09T11:44:15.845Z,28.20
2022-08-09T11:47:00.080Z,28.70
2022-08-09T11:50:53.115Z,28.70
2022-08-09T11:53:57.780Z,27.90
2022-08-09T11:56:41.318Z,26.70
2022-08-09T11:59:10.902Z,26.50
2022-08-09T12:02:17.753Z,26.70
2022-08-09T12:04:32.385Z,26.70
2022-08-09T12:07:07.946Z,26.70
2022-08-09T12:09:36.347Z,26.70
2022-08-09T12:12:05.331Z,26.50
2022-08-09T12:14:36.937Z,26.50
2022-08-09T12:17:28.172Z,26.60
2022-08-09T12:20:00.093Z,26.90
2022-08-09T12:22:29.206Z,27.30
2022-08-09T12:25:11.037Z,28.10
2022-08-09T12:29:12.697Z,28.60
2022-08-09T12:30:36.213Z,28.30
2022-08-09T12:33:06.138Z,27.70
2022-08-09T12:35:40.085Z,27.30
2022-08-09T12:38:29.691Z,27.20
2022-08-09T12:41:05.523Z,27.20
2022-08-09T12:44:06.291Z,27.20
2022-08-09T12:46:22.769Z,27.30
2022-08-09T12:48:52.161Z,27.30
2022-08-09T12:51:52.817Z,27.50
2022-08-09T12:54:08.127Z,27.80
2022-08-09T12:56:51.279Z,28.30
2022-08-09T12:59:21.960Z,28.60
2022-08-09T13:02:04.798Z,28.30
2022-08-09T13:04:38.624Z,28.30
2022-08-09T13:07:13.786Z,29.00
2022-08-09T13:09:52.752Z,29.70
2022-08-09T13:12:27.083Z,30.20
2022-08-09T13:15:04.483Z,30.60
2022-08-09T13:18:03.341Z,30.50
2022-08-09T13:20:37.495Z,30.70
2022-08-09T13:24:16.226Z,31.20
2022-08-09T13:26:05.490Z,31.50
2022-08-09T13:28:35.496Z,30.60
2022-08-09T13:32:17.628Z,30.30
2022-08-09T13:33:54.322Z,30.10
2022-08-09T13:36:37.916Z,30.20
2022-08-09T13:41:20.787Z,30.90
2022-08-09T13:42:02.145Z,30.80
2022-08-09T13:44:30.129Z,31.60
2022-08-09T13:47:26.849Z,31.40
2022-08-09T13:49:56.025Z,31.00
2022-08-09T13:52:24.923Z,31.40
2022-08-09T13:55:00.978Z,30.80
2022-08-09T13:57:37.059Z,31.10
2022-08-09T14:00:12.110Z,31.50
2022-08-09T14:02:42.636Z,31.90
2022-08-09T14:05:58.697Z,32.40
2022-08-09T14:08:15.836Z,33.00
2022-08-09T14:10:46.277Z,33.00
2022-08-09T14:13:28.267Z,34.00
2022-08-09T14:16:10.359Z,34.80
2022-08-09T14:18:38.077Z,36.70
2022-08-09T14:21:05.967Z,36.90
2022-08-09T14:23:40.095Z,37.90
2022-08-09T14:26:13.983Z,38.30
2022-08-09T14:28:42.879Z,40.50
2022-08-09T14:31:11.455Z,42.20
2022-08-09T14:33:38.507Z,43.10
2022-08-09T14:36:20.535Z,42.90
2022-08-09T14:38:52.470Z,39.80
2022-08-09T14:41:26.644Z,36.40
2022-08-09T14:44:09.572Z,37.80
2022-08-09T14:46:56.030Z,39.50
2022-08-09T14:49:25.603Z,40.70
2022-08-09T14:51:53.226Z,42.40
2022-08-09T14:54:27.811Z,42.30
2022-08-09T14:56:58.087Z,42.20
2022-08-09T14:59:27.044Z,42.70
2022-08-09T15:01:54.289Z,42.50
2022-08-09T15:04:23.253Z,42.40
2022-08-09T15:06:51.340Z,40.30
2022-08-09T15:10:04.050Z,37.20
2022-08-09T15:12:07.827Z,35.20
2022-08-09T15:14:38.787Z,34.50
2022-08-09T15:17:06.970Z,36.00
2022-08-09T15:21:53.757Z,37.30
2022-08-09T15:22:59.884Z,38.90
2022-08-09T15:25:45.805Z,39.10
2022-08-09T15:28:27.893Z,38.80
2022-08-09T15:31:10.320Z,38.50
2022-08-09T15:34:32.803Z,39.20
2022-08-09T15:36:30.216Z,39.60
2022-08-09T15:38:57.291Z,39.70
2022-08-09T15:41:31.496Z,39.60
2022-08-09T15:43:59.677Z,38.70
2022-08-09T15:46:34.380Z,38.10
2022-08-09T15:49:21.015Z,37.50
2022-08-09T15:52:04.566Z,36.90
2022-08-09T15:54:46.091Z,35.80
2022-08-09T15:57:19.025Z,34.20
2022-08-09T16:00:02.469Z,32.40
2022-08-09T16:02:29.909Z,31.00
2022-08-09T16:04:56.901Z,31.10
2022-08-09T16:07:27.603Z,30.70
2022-08-09T16:10:02.535Z,29.30
2022-08-09T16:12:31.590Z,29.80
2022-08-09T16:14:58.636Z,29.50
2022-08-09T16:17:28.510Z,29.20
2022-08-09T16:20:04.790Z,29.10
2022-08-09T16:22:36.561Z,29.10
2022-08-09T16:25:11.154Z,29.00
2022-08-09T16:27:40.644Z,29.10
2022-08-09T16:30:15.052Z,29.10
2022-08-09T16:33:11.069Z,29.70
2022-08-09T16:35:55.961Z,30.70
2022-08-09T16:38:25.643Z,32.50
2022-08-09T16:40:52.736Z,33.70
2022-08-09T16:43:20.868Z,34.60
2022-08-09T16:45:48.147Z,35.00
2022-08-09T16:48:38.472Z,34.60
2022-08-09T16:51:13.513Z,33.50
2022-08-09T16:54:02.456Z,32.10
2022-08-09T16:56:30.798Z,30.80
2022-08-09T16:58:58.077Z,29.80
2022-08-09T17:01:27.588Z,29.20
2022-08-09T17:03:56.523Z,28.50
2022-08-09T17:06:29.043Z,28.20
2022-08-09T17:09:16.124Z,27.70
2022-08-09T17:11:48.267Z,27.50
2022-08-09T17:14:27.108Z,27.40
2022-08-09T17:16:56.974Z,27.10
2022-08-09T17:19:27.350Z,27.00
2022-08-09T17:22:14.591Z,27.00
2022-08-09T17:24:47.965Z,26.90
2022-08-09T17:27:22.415Z,26.90
2022-08-09T17:29:50.729Z,26.80
2022-08-09T17:32:20.332Z,26.60
2022-08-09T17:35:04.366Z,26.40
2022-08-09T17:38:02.290Z,26.40
2022-08-09T17:40:26.470Z,26.10
2022-08-09T17:42:59.280Z,26.30
2022-08-09T17:45:45.539Z,24.20
2022-08-09T17:48:14.508Z,26.40
2022-08-09T17:50:55.877Z,25.90
2022-08-09T17:53:32.376Z,25.90
2022-08-09T17:56:12.311Z,25.90
2022-08-09T17:58:42.742Z,25.80
2022-08-09T18:01:10.568Z,25.40
2022-08-09T18:03:50.448Z,25.70
2022-08-09T18:06:30.693Z,25.60
2022-08-09T18:09:01.669Z,25.40
2022-08-09T18:12:05.184Z,25.60
2022-08-09T18:14:27.546Z,25.50
2022-08-09T18:16:54.383Z,25.40
2022-08-09T18:20:58.320Z,25.30
2022-08-09T18:22:17.104Z,25.20
2022-08-09T18:24:47.813Z,25.20
2022-08-09T18:27:18.840Z,25.20
2022-08-09T18:30:42.603Z,25.00
2022-08-09T18:32:54.501Z,25.00
2022-08-09T18:36:00.008Z,24.80
2022-08-09T18:38:16.673Z,24.80
2022-08-09T18:40:49.014Z,24.80
2022-08-09T18:43:17.227Z,24.70
2022-08-09T18:46:49.451Z,24.60
2022-08-09T18:48:34.184Z,24.40
2022-08-09T18:51:02.869Z,24.50
2022-08-09T18:53:56.172Z,24.40
2022-08-09T18:56:27.730Z,24.40
2022-08-09T18:59:01.538Z,24.30
2022-08-09T19:01:28.746Z,24.30
2022-08-09T19:04:34.755Z,24.20
2022-08-09T19:07:17.528Z,23.00
2022-08-09T19:10:14.121Z,24.10
2022-08-09T19:12:42.596Z,24.10
2022-08-09T19:15:25.044Z,24.10
2022-08-09T19:18:33.248Z,23.90
2022-08-09T19:21:09.894Z,23.90
2022-08-09T19:24:33.390Z,23.80
2022-08-09T19:30:28.521Z,23.70
2022-08-09T19:33:18.977Z,23.70
2022-08-09T19:35:58.909Z,23.60
2022-08-09T19:38:29.013Z,23.50
2022-08-09T19:41:33.178Z,23.80
2022-08-09T19:44:07.629Z,23.50
2022-08-09T19:46:49.948Z,23.50
2022-08-09T19:50:06.678Z,23.40
2022-08-09T19:52:24.446Z,23.40
2022-08-09T19:54:57.374Z,23.40
2022-08-09T19:57:26.163Z,23.30
2022-08-09T20:00:15.097Z,22.50
2022-08-09T20:04:11.623Z,23.20
2022-08-09T20:05:46.454Z,23.10
2022-08-09T20:08:33.331Z,21.30
2022-08-09T20:11:43.236Z,23.10
2022-08-09T20:14:16.035Z,23.00
2022-08-09T20:16:55.042Z,23.00
2022-08-09T20:19:47.987Z,22.90
2022-08-09T20:22:32.116Z,22.90
2022-08-09T20:25:27.541Z,22.80
2022-08-09T20:27:56.821Z,22.80
2022-08-09T20:30:41.613Z,22.70
2022-08-09T20:33:13.566Z,23.20
2022-08-09T20:36:05.688Z,22.60
2022-08-09T20:41:34.743Z,22.50
2022-08-09T20:44:16.358Z,21.90
2022-08-09T20:47:02.001Z,22.40
2022-08-09T20:49:30.800Z,22.40
2022-08-09T20:52:02.335Z,22.20
2022-08-09T20:54:29.444Z,22.30
2022-08-09T20:56:58.603Z,22.20
2022-08-09T21:00:19.951Z,22.20
2022-08-09T21:02:27.658Z,22.20
2022-08-09T21:05:56.200Z,22.10
2022-08-09T21:07:44.309Z,22.00
2022-08-09T21:10:12.095Z,22.00
2022-08-09T21:12:39.337Z,22.00
2022-08-09T21:15:13.034Z,22.40
2022-08-09T21:18:22.820Z,22.10
2022-08-09T21:20:30.209Z,21.80
2022-08-09T21:23:12.988Z,21.80
2022-08-09T21:25:59.292Z,21.80
2022-08-09T21:28:34.977Z,21.90
2022-08-09T21:31:16.417Z,21.80
2022-08-09T21:33:50.944Z,21.70
2022-08-09T21:36:19.826Z,21.70
2022-08-09T21:38:50.841Z,21.60
2022-08-09T21:42:00.343Z,21.60
2022-08-09T21:44:11.060Z,21.50
2022-08-09T21:46:38.185Z,21.50
2022-08-09T21:49:07.470Z,21.40
2022-08-09T21:51:36.321Z,21.40
2022-08-09T21:54:12.743Z,21.30
2022-08-09T21:56:44.630Z,21.30
2022-08-09T21:59:25.594Z,21.30
2022-08-09T22:02:01.084Z,21.30
2022-08-09T22:04:55.349Z,21.20
2022-08-09T22:07:35.572Z,21.20
2022-08-09T22:10:04.735Z,21.20
2022-08-09T22:12:32.412Z,21.10
2022-08-09T22:14:59.794Z,21.10
2022-08-09T22:17:28.056Z,21.00
2022-08-09T22:20:00.627Z,21.00
2022-08-09T22:22:28.296Z,20.90
2022-08-09T22:26:06.706Z,20.90
2022-08-09T22:27:42.972Z,20.90
2022-08-09T22:30:11.322Z,20.90
2022-08-09T22:32:38.860Z,20.80
2022-08-09T22:36:02.468Z,20.80
2022-08-09T22:38:06.557Z,20.80
2022-08-09T22:40:35.302Z,20.70
2022-08-09T22:43:16.198Z,20.70
2022-08-09T22:48:15.882Z,20.70
2022-08-09T22:48:37.332Z,20.70
2022-08-09T22:51:10.913Z,20.70
2022-08-09T22:54:02.894Z,20.60
2022-08-09T22:56:33.936Z,20.60
2022-08-09T22:59:05.709Z,20.60
2022-08-09T23:01:50.737Z,20.40
2022-08-09T23:04:18.019Z,20.40
2022-08-09T23:07:03.004Z,20.40
2022-08-09T23:09:30.884Z,20.40
2022-08-09T23:12:13.913Z,20.30
2022-08-09T23:14:41.942Z,20.30
2022-08-09T23:17:10.148Z,20.20
2022-08-09T23:20:00.871Z,20.30
2022-08-09T23:22:25.404Z,20.10
2022-08-09T23:24:52.470Z,20.10
2022-08-09T23:27:19.490Z,20.00
2022-08-09T23:29:47.299Z,20.00
2022-08-09T23:32:14.545Z,20.00
2022-08-09T23:34:41.729Z,19.90
2022-08-09T23:37:09.308Z,20.00
2022-08-09T23:39:36.533Z,20.00
2022-08-09T23:42:04.072Z,19.90
2022-08-09T23:44:31.227Z,19.80
2022-08-09T23:46:59.078Z,19.80
2022-08-09T23:49:27.494Z,19.60
2022-08-09T23:51:54.724Z,19.70
2022-08-09T23:54:26.574Z,19.70
2022-08-09T23:57:06.195Z,19.70
